sensor_id;sensor_type;location;lat;lon;timestamp;temperature;humidity
53599;DHT22;39485;45.702;11.364;2023-08-31T00:00:49;17.10;99.90
53599;DHT22;39485;45.702;11.364;2023-08-31T00:03:16;17.10;99.90
53599;DHT22;39485;45.702;11.364;2023-08-31T00:05:43;17.10;99.90
53599;DHT22;39485;45.702;11.364;2023-08-31T00:08:10;17.10;99.90
53599;DHT22;39485;45.702;11.364;2023-08-31T00:10:37;17.10;99.90
53599;DHT22;39485;45.702;11.364;2023-08-31T00:13:03;17.10;99.90
53599;DHT22;39485;45.702;11.364;2023-08-31T00:15:30;17.10;99.90
53599;DHT22;39485;45.702;11.364;2023-08-31T00:17:58;17.10;99.90
53599;DHT22;39485;45.702;11.364;2023-08-31T00:20:24;17.10;99.90
53599;DHT22;39485;45.702;11.364;2023-08-31T00:22:50;17.10;99.90
53599;DHT22;39485;45.702;11.364;2023-08-31T00:25:16;17.10;99.90
53599;DHT22;39485;45.702;11.364;2023-08-31T00:27:41;17.10;99.90
53599;DHT22;39485;45.702;11.364;2023-08-31T00:30:09;17.10;99.90
53599;DHT22;39485;45.702;11.364;2023-08-31T00:32:35;17.10;99.90
53599;DHT22;39485;45.702;11.364;2023-08-31T00:35:00;17.00;99.90
53599;DHT22;39485;45.702;11.364;2023-08-31T00:37:26;17.00;99.90
53599;DHT22;39485;45.702;11.364;2023-08-31T00:39:52;17.00;99.90
53599;DHT22;39485;45.702;11.364;2023-08-31T00:42:18;17.00;99.90
53599;DHT22;39485;45.702;11.364;2023-08-31T00:44:44;17.00;99.90
53599;DHT22;39485;45.702;11.364;2023-08-31T00:47:13;17.00;99.90
53599;DHT22;39485;45.702;11.364;2023-08-31T00:49:40;16.90;99.90
53599;DHT22;39485;45.702;11.364;2023-08-31T00:52:06;16.90;99.90
53599;DHT22;39485;45.702;11.364;2023-08-31T00:54:33;16.90;99.90
53599;DHT22;39485;45.702;11.364;2023-08-31T00:56:59;16.90;99.90
53599;DHT22;39485;45.702;11.364;2023-08-31T00:59:25;16.90;99.90
53599;DHT22;39485;45.702;11.364;2023-08-31T01:02:17;16.90;99.90
53599;DHT22;39485;45.702;11.364;2023-08-31T01:12:49;16.80;99.90
53599;DHT22;39485;45.702;11.364;2023-08-31T01:15:16;16.70;99.90
53599;DHT22;39485;45.702;11.364;2023-08-31T01:17:50;16.70;99.90
53599;DHT22;39485;45.702;11.364;2023-08-31T01:21:06;16.60;99.90
53599;DHT22;39485;45.702;11.364;2023-08-31T01:23:53;16.60;99.90
53599;DHT22;39485;45.702;11.364;2023-08-31T01:26:19;16.60;99.90
53599;DHT22;39485;45.702;11.364;2023-08-31T01:28:46;16.60;99.90
53599;DHT22;39485;45.702;11.364;2023-08-31T01:31:12;16.60;99.90
53599;DHT22;39485;45.702;11.364;2023-08-31T01:33:38;16.50;99.90
53599;DHT22;39485;45.702;11.364;2023-08-31T01:36:12;16.50;99.90
53599;DHT22;39485;45.702;11.364;2023-08-31T01:38:42;16.50;99.90
53599;DHT22;39485;45.702;11.364;2023-08-31T01:41:13;16.40;99.90
53599;DHT22;39485;45.702;11.364;2023-08-31T01:43:41;16.40;99.90
53599;DHT22;39485;45.702;11.364;2023-08-31T01:46:07;16.40;99.90
53599;DHT22;39485;45.702;11.364;2023-08-31T01:48:42;16.30;99.90
53599;DHT22;39485;45.702;11.364;2023-08-31T01:51:10;16.30;99.90
53599;DHT22;39485;45.702;11.364;2023-08-31T01:53:36;16.30;99.90
53599;DHT22;39485;45.702;11.364;2023-08-31T01:56:02;16.30;99.90
53599;DHT22;39485;45.702;11.364;2023-08-31T01:58:28;16.30;99.90
53599;DHT22;39485;45.702;11.364;2023-08-31T02:00:53;16.30;99.90
53599;DHT22;39485;45.702;11.364;2023-08-31T02:03:19;16.30;99.90
53599;DHT22;39485;45.702;11.364;2023-08-31T02:05:45;16.30;99.90
53599;DHT22;39485;45.702;11.364;2023-08-31T02:08:10;16.30;99.90
53599;DHT22;39485;45.702;11.364;2023-08-31T02:10:36;16.30;99.90
53599;DHT22;39485;45.702;11.364;2023-08-31T02:13:02;16.20;99.90
53599;DHT22;39485;45.702;11.364;2023-08-31T02:15:27;16.20;99.90
53599;DHT22;39485;45.702;11.364;2023-08-31T02:17:53;16.20;99.90
53599;DHT22;39485;45.702;11.364;2023-08-31T02:20:19;16.20;99.90
53599;DHT22;39485;45.702;11.364;2023-08-31T02:22:46;16.10;99.90
53599;DHT22;39485;45.702;11.364;2023-08-31T02:25:11;16.10;99.90
53599;DHT22;39485;45.702;11.364;2023-08-31T02:27:39;16.10;99.90
53599;DHT22;39485;45.702;11.364;2023-08-31T02:30:05;16.10;99.90
53599;DHT22;39485;45.702;11.364;2023-08-31T02:32:31;16.00;99.90
53599;DHT22;39485;45.702;11.364;2023-08-31T02:34:57;16.10;99.90
53599;DHT22;39485;45.702;11.364;2023-08-31T02:37:22;16.00;99.90
53599;DHT22;39485;45.702;11.364;2023-08-31T02:39:48;16.10;99.90
53599;DHT22;39485;45.702;11.364;2023-08-31T02:42:14;16.10;99.90
53599;DHT22;39485;45.702;11.364;2023-08-31T02:44:40;16.00;99.90
53599;DHT22;39485;45.702;11.364;2023-08-31T02:47:05;16.10;99.90
53599;DHT22;39485;45.702;11.364;2023-08-31T02:49:31;16.10;99.90
53599;DHT22;39485;45.702;11.364;2023-08-31T02:51:57;16.00;99.90
53599;DHT22;39485;45.702;11.364;2023-08-31T02:54:23;16.00;99.90
53599;DHT22;39485;45.702;11.364;2023-08-31T02:56:48;16.00;99.90
53599;DHT22;39485;45.702;11.364;2023-08-31T02:59:14;16.00;99.90
53599;DHT22;39485;45.702;11.364;2023-08-31T03:01:39;16.00;99.90
53599;DHT22;39485;45.702;11.364;2023-08-31T03:04:06;16.00;99.90
53599;DHT22;39485;45.702;11.364;2023-08-31T03:06:34;16.00;99.90
53599;DHT22;39485;45.702;11.364;2023-08-31T03:09:00;16.00;99.90
53599;DHT22;39485;45.702;11.364;2023-08-31T03:11:26;16.00;99.90
53599;DHT22;39485;45.702;11.364;2023-08-31T03:13:52;15.90;99.90
53599;DHT22;39485;45.702;11.364;2023-08-31T03:16:18;16.00;99.90
53599;DHT22;39485;45.702;11.364;2023-08-31T03:18:43;15.90;99.90
53599;DHT22;39485;45.702;11.364;2023-08-31T03:21:09;15.90;99.90
53599;DHT22;39485;45.702;11.364;2023-08-31T03:23:35;15.90;99.90
53599;DHT22;39485;45.702;11.364;2023-08-31T03:26:07;15.90;99.90
53599;DHT22;39485;45.702;11.364;2023-08-31T03:28:33;15.90;99.90
53599;DHT22;39485;45.702;11.364;2023-08-31T03:30:59;15.90;99.90
53599;DHT22;39485;45.702;11.364;2023-08-31T03:33:25;15.90;99.90
53599;DHT22;39485;45.702;11.364;2023-08-31T03:35:51;15.90;99.90
53599;DHT22;39485;45.702;11.364;2023-08-31T03:38:16;15.90;99.90
53599;DHT22;39485;45.702;11.364;2023-08-31T03:40:42;15.90;99.90
53599;DHT22;39485;45.702;11.364;2023-08-31T03:43:08;15.90;99.90
53599;DHT22;39485;45.702;11.364;2023-08-31T03:45:33;15.90;99.90
53599;DHT22;39485;45.702;11.364;2023-08-31T03:47:59;15.90;99.90
53599;DHT22;39485;45.702;11.364;2023-08-31T03:50:25;16.00;99.90
53599;DHT22;39485;45.702;11.364;2023-08-31T03:52:50;16.00;99.90
53599;DHT22;39485;45.702;11.364;2023-08-31T03:55:16;16.00;99.90
53599;DHT22;39485;45.702;11.364;2023-08-31T03:57:42;16.00;99.90
53599;DHT22;39485;45.702;11.364;2023-08-31T04:00:08;16.00;99.90
53599;DHT22;39485;45.702;11.364;2023-08-31T04:02:35;16.10;99.90
53599;DHT22;39485;45.702;11.364;2023-08-31T04:05:01;16.00;99.90
53599;DHT22;39485;45.702;11.364;2023-08-31T04:07:31;16.00;99.90
53599;DHT22;39485;45.702;11.364;2023-08-31T04:09:57;16.10;99.90
53599;DHT22;39485;45.702;11.364;2023-08-31T04:12:23;16.00;99.90
53599;DHT22;39485;45.702;11.364;2023-08-31T04:14:48;16.00;99.90
53599;DHT22;39485;45.702;11.364;2023-08-31T04:17:14;16.10;99.90
53599;DHT22;39485;45.702;11.364;2023-08-31T04:19:39;16.00;99.90
53599;DHT22;39485;45.702;11.364;2023-08-31T04:22:05;16.00;99.90
53599;DHT22;39485;45.702;11.364;2023-08-31T04:24:31;16.00;99.90
53599;DHT22;39485;45.702;11.364;2023-08-31T04:26:56;16.00;99.90
53599;DHT22;39485;45.702;11.364;2023-08-31T04:29:22;16.00;99.90
53599;DHT22;39485;45.702;11.364;2023-08-31T04:31:48;16.00;99.90
53599;DHT22;39485;45.702;11.364;2023-08-31T04:34:13;15.90;99.90
53599;DHT22;39485;45.702;11.364;2023-08-31T04:36:39;16.00;99.90
53599;DHT22;39485;45.702;11.364;2023-08-31T04:39:04;16.00;99.90
53599;DHT22;39485;45.702;11.364;2023-08-31T04:41:31;15.90;99.90
53599;DHT22;39485;45.702;11.364;2023-08-31T04:43:56;15.90;99.90
53599;DHT22;39485;45.702;11.364;2023-08-31T04:46:22;16.00;99.90
53599;DHT22;39485;45.702;11.364;2023-08-31T04:48:48;15.90;99.90
53599;DHT22;39485;45.702;11.364;2023-08-31T04:51:30;15.90;99.90
53599;DHT22;39485;45.702;11.364;2023-08-31T04:53:55;15.90;99.90
53599;DHT22;39485;45.702;11.364;2023-08-31T04:56:21;16.00;99.90
53599;DHT22;39485;45.702;11.364;2023-08-31T04:58:47;15.90;99.90
53599;DHT22;39485;45.702;11.364;2023-08-31T05:01:12;15.90;99.90
53599;DHT22;39485;45.702;11.364;2023-08-31T05:03:38;15.90;99.90
53599;DHT22;39485;45.702;11.364;2023-08-31T05:06:04;15.90;99.90
53599;DHT22;39485;45.702;11.364;2023-08-31T05:08:30;15.90;99.90
53599;DHT22;39485;45.702;11.364;2023-08-31T05:10:56;15.90;99.90
53599;DHT22;39485;45.702;11.364;2023-08-31T05:13:21;16.00;99.90
53599;DHT22;39485;45.702;11.364;2023-08-31T05:15:47;16.00;99.90
53599;DHT22;39485;45.702;11.364;2023-08-31T05:18:13;16.00;99.90
53599;DHT22;39485;45.702;11.364;2023-08-31T05:20:38;16.00;99.90
53599;DHT22;39485;45.702;11.364;2023-08-31T05:23:04;16.10;99.90
53599;DHT22;39485;45.702;11.364;2023-08-31T05:25:30;16.10;99.90
53599;DHT22;39485;45.702;11.364;2023-08-31T05:27:55;16.10;99.90
53599;DHT22;39485;45.702;11.364;2023-08-31T05:30:21;16.10;99.90
53599;DHT22;39485;45.702;11.364;2023-08-31T05:32:47;16.20;99.90
53599;DHT22;39485;45.702;11.364;2023-08-31T05:35:12;16.20;99.90
53599;DHT22;39485;45.702;11.364;2023-08-31T05:37:38;16.20;99.90
53599;DHT22;39485;45.702;11.364;2023-08-31T05:40:04;16.20;99.90
53599;DHT22;39485;45.702;11.364;2023-08-31T05:42:37;16.30;99.90
53599;DHT22;39485;45.702;11.364;2023-08-31T05:45:02;16.30;99.90
53599;DHT22;39485;45.702;11.364;2023-08-31T05:47:28;16.30;99.90
53599;DHT22;39485;45.702;11.364;2023-08-31T05:49:54;16.50;99.90
53599;DHT22;39485;45.702;11.364;2023-08-31T05:52:19;16.50;99.90
53599;DHT22;39485;45.702;11.364;2023-08-31T05:54:45;16.50;99.90
53599;DHT22;39485;45.702;11.364;2023-08-31T05:57:11;16.60;99.90
53599;DHT22;39485;45.702;11.364;2023-08-31T05:59:37;16.70;99.90
53599;DHT22;39485;45.702;11.364;2023-08-31T06:02:02;16.70;99.90
53599;DHT22;39485;45.702;11.364;2023-08-31T06:04:29;16.70;99.90
53599;DHT22;39485;45.702;11.364;2023-08-31T06:06:56;16.80;99.90
53599;DHT22;39485;45.702;11.364;2023-08-31T06:09:22;16.80;99.90
53599;DHT22;39485;45.702;11.364;2023-08-31T06:11:47;16.90;99.90
53599;DHT22;39485;45.702;11.364;2023-08-31T06:14:13;17.00;99.90
53599;DHT22;39485;45.702;11.364;2023-08-31T06:16:38;17.00;99.90
53599;DHT22;39485;45.702;11.364;2023-08-31T06:19:04;17.10;99.90
53599;DHT22;39485;45.702;11.364;2023-08-31T06:21:30;17.20;99.90
53599;DHT22;39485;45.702;11.364;2023-08-31T06:23:56;17.30;99.90
53599;DHT22;39485;45.702;11.364;2023-08-31T06:26:21;17.40;99.90
53599;DHT22;39485;45.702;11.364;2023-08-31T06:28:47;17.60;99.90
53599;DHT22;39485;45.702;11.364;2023-08-31T06:31:13;17.70;99.90
53599;DHT22;39485;45.702;11.364;2023-08-31T06:33:38;17.80;99.90
53599;DHT22;39485;45.702;11.364;2023-08-31T06:36:04;18.00;99.90
53599;DHT22;39485;45.702;11.364;2023-08-31T06:38:30;18.10;99.90
53599;DHT22;39485;45.702;11.364;2023-08-31T06:40:55;18.20;99.90
53599;DHT22;39485;45.702;11.364;2023-08-31T06:43:25;18.40;99.90
53599;DHT22;39485;45.702;11.364;2023-08-31T06:45:52;18.50;99.90
53599;DHT22;39485;45.702;11.364;2023-08-31T06:48:18;18.60;99.90
53599;DHT22;39485;45.702;11.364;2023-08-31T06:50:44;18.70;99.90
53599;DHT22;39485;45.702;11.364;2023-08-31T06:53:09;18.80;99.90
53599;DHT22;39485;45.702;11.364;2023-08-31T06:55:35;18.90;99.90
53599;DHT22;39485;45.702;11.364;2023-08-31T06:58:02;19.00;99.90
53599;DHT22;39485;45.702;11.364;2023-08-31T07:00:29;19.00;99.90
53599;DHT22;39485;45.702;11.364;2023-08-31T07:02:55;19.10;99.90
53599;DHT22;39485;45.702;11.364;2023-08-31T07:05:25;19.10;99.90
53599;DHT22;39485;45.702;11.364;2023-08-31T07:07:55;19.10;99.90
53599;DHT22;39485;45.702;11.364;2023-08-31T07:10:21;19.10;99.90
53599;DHT22;39485;45.702;11.364;2023-08-31T07:12:47;19.10;99.90
53599;DHT22;39485;45.702;11.364;2023-08-31T07:15:13;19.10;99.90
53599;DHT22;39485;45.702;11.364;2023-08-31T07:17:39;19.20;99.90
53599;DHT22;39485;45.702;11.364;2023-08-31T07:20:05;19.20;99.90
53599;DHT22;39485;45.702;11.364;2023-08-31T07:22:35;19.30;99.90
53599;DHT22;39485;45.702;11.364;2023-08-31T07:25:00;19.30;99.90
53599;DHT22;39485;45.702;11.364;2023-08-31T07:27:26;19.30;99.90
53599;DHT22;39485;45.702;11.364;2023-08-31T07:29:54;19.30;99.90
53599;DHT22;39485;45.702;11.364;2023-08-31T07:32:20;19.40;99.90
53599;DHT22;39485;45.702;11.364;2023-08-31T07:34:46;19.40;99.90
53599;DHT22;39485;45.702;11.364;2023-08-31T07:37:11;19.50;99.90
53599;DHT22;39485;45.702;11.364;2023-08-31T07:39:37;19.50;99.90
53599;DHT22;39485;45.702;11.364;2023-08-31T07:42:04;19.50;99.90
53599;DHT22;39485;45.702;11.364;2023-08-31T07:44:30;19.60;99.90
53599;DHT22;39485;45.702;11.364;2023-08-31T07:46:56;19.60;99.90
53599;DHT22;39485;45.702;11.364;2023-08-31T07:49:22;19.80;99.90
53599;DHT22;39485;45.702;11.364;2023-08-31T07:51:48;19.90;99.90
53599;DHT22;39485;45.702;11.364;2023-08-31T07:54:23;20.00;99.90
53599;DHT22;39485;45.702;11.364;2023-08-31T07:56:49;20.10;99.90
53599;DHT22;39485;45.702;11.364;2023-08-31T07:59:15;20.20;99.90
53599;DHT22;39485;45.702;11.364;2023-08-31T08:01:41;20.30;99.90
53599;DHT22;39485;45.702;11.364;2023-08-31T08:04:07;20.40;99.90
53599;DHT22;39485;45.702;11.364;2023-08-31T08:06:36;20.40;99.90
53599;DHT22;39485;45.702;11.364;2023-08-31T08:09:01;20.50;99.90
53599;DHT22;39485;45.702;11.364;2023-08-31T08:11:27;20.50;99.90
53599;DHT22;39485;45.702;11.364;2023-08-31T08:13:53;20.60;99.90
53599;DHT22;39485;45.702;11.364;2023-08-31T08:16:18;20.60;99.90
53599;DHT22;39485;45.702;11.364;2023-08-31T08:18:44;20.60;99.90
53599;DHT22;39485;45.702;11.364;2023-08-31T08:24:41;20.70;99.90
53599;DHT22;39485;45.702;11.364;2023-08-31T08:27:52;20.70;99.90
53599;DHT22;39485;45.702;11.364;2023-08-31T08:33:26;20.90;99.90
53599;DHT22;39485;45.702;11.364;2023-08-31T08:36:29;21.00;99.90
53599;DHT22;39485;45.702;11.364;2023-08-31T08:39:30;21.00;99.90
53599;DHT22;39485;45.702;11.364;2023-08-31T08:45:12;21.20;99.90
53599;DHT22;39485;45.702;11.364;2023-08-31T08:47:50;21.10;99.90
53599;DHT22;39485;45.702;11.364;2023-08-31T08:50:36;21.20;99.90
53599;DHT22;39485;45.702;11.364;2023-08-31T08:53:38;21.30;99.90
53599;DHT22;39485;45.702;11.364;2023-08-31T08:56:17;21.30;99.90
53599;DHT22;39485;45.702;11.364;2023-08-31T08:58:51;21.40;99.90
53599;DHT22;39485;45.702;11.364;2023-08-31T09:01:18;21.50;99.90
53599;DHT22;39485;45.702;11.364;2023-08-31T09:03:48;21.60;99.90
53599;DHT22;39485;45.702;11.364;2023-08-31T09:06:14;21.60;99.90
53599;DHT22;39485;45.702;11.364;2023-08-31T09:08:41;21.70;99.90
53599;DHT22;39485;45.702;11.364;2023-08-31T09:11:07;21.80;99.90
53599;DHT22;39485;45.702;11.364;2023-08-31T09:13:32;21.80;99.90
53599;DHT22;39485;45.702;11.364;2023-08-31T09:15:59;21.80;99.90
53599;DHT22;39485;45.702;11.364;2023-08-31T09:18:31;21.90;99.90
53599;DHT22;39485;45.702;11.364;2023-08-31T09:20:59;21.90;99.90
53599;DHT22;39485;45.702;11.364;2023-08-31T09:23:25;22.00;99.90
53599;DHT22;39485;45.702;11.364;2023-08-31T09:25:55;22.00;99.90
53599;DHT22;39485;45.702;11.364;2023-08-31T09:28:27;22.00;99.90
53599;DHT22;39485;45.702;11.364;2023-08-31T09:31:08;22.10;99.90
53599;DHT22;39485;45.702;11.364;2023-08-31T09:33:37;22.10;99.90
53599;DHT22;39485;45.702;11.364;2023-08-31T09:36:03;22.20;99.90
53599;DHT22;39485;45.702;11.364;2023-08-31T09:42:20;22.30;99.90
53599;DHT22;39485;45.702;11.364;2023-08-31T09:44:47;22.40;99.90
53599;DHT22;39485;45.702;11.364;2023-08-31T09:47:14;22.50;99.90
53599;DHT22;39485;45.702;11.364;2023-08-31T09:49:41;22.50;99.90
53599;DHT22;39485;45.702;11.364;2023-08-31T09:52:09;22.70;99.90
53599;DHT22;39485;45.702;11.364;2023-08-31T09:57:59;22.80;99.90
53599;DHT22;39485;45.702;11.364;2023-08-31T10:00:26;22.80;99.90
53599;DHT22;39485;45.702;11.364;2023-08-31T10:02:59;22.80;99.90
53599;DHT22;39485;45.702;11.364;2023-08-31T10:09:01;22.90;99.90
53599;DHT22;39485;45.702;11.364;2023-08-31T10:11:28;22.90;99.90
53599;DHT22;39485;45.702;11.364;2023-08-31T10:13:55;23.00;99.90
53599;DHT22;39485;45.702;11.364;2023-08-31T10:16:21;23.00;99.90
53599;DHT22;39485;45.702;11.364;2023-08-31T10:18:48;23.10;99.90
53599;DHT22;39485;45.702;11.364;2023-08-31T10:21:18;23.10;99.90
53599;DHT22;39485;45.702;11.364;2023-08-31T10:23:47;23.10;99.90
53599;DHT22;39485;45.702;11.364;2023-08-31T10:26:30;23.20;99.90
53599;DHT22;39485;45.702;11.364;2023-08-31T10:28:57;23.20;99.90
53599;DHT22;39485;45.702;11.364;2023-08-31T10:41:18;23.30;99.90
53599;DHT22;39485;45.702;11.364;2023-08-31T10:44:18;23.20;99.90
53599;DHT22;39485;45.702;11.364;2023-08-31T10:46:44;23.20;99.90
53599;DHT22;39485;45.702;11.364;2023-08-31T10:51:37;23.20;99.90
53599;DHT22;39485;45.702;11.364;2023-08-31T10:54:30;23.20;99.90
53599;DHT22;39485;45.702;11.364;2023-08-31T11:02:08;23.10;99.90
53599;DHT22;39485;45.702;11.364;2023-08-31T11:07:32;23.00;99.90
53599;DHT22;39485;45.702;11.364;2023-08-31T11:10:17;23.00;99.90
53599;DHT22;39485;45.702;11.364;2023-08-31T11:12:49;23.00;99.90
53599;DHT22;39485;45.702;11.364;2023-08-31T11:15:17;23.00;99.90
53599;DHT22;39485;45.702;11.364;2023-08-31T11:17:43;23.10;99.90
53599;DHT22;39485;45.702;11.364;2023-08-31T11:20:16;23.20;99.90
53599;DHT22;39485;45.702;11.364;2023-08-31T11:22:44;23.20;99.90
53599;DHT22;39485;45.702;11.364;2023-08-31T11:25:12;23.30;99.90
53599;DHT22;39485;45.702;11.364;2023-08-31T11:27:38;23.30;99.90
53599;DHT22;39485;45.702;11.364;2023-08-31T11:30:14;23.40;99.90
53599;DHT22;39485;45.702;11.364;2023-08-31T11:32:50;23.50;99.90
53599;DHT22;39485;45.702;11.364;2023-08-31T11:35:16;23.50;99.90
53599;DHT22;39485;45.702;11.364;2023-08-31T11:37:43;23.60;99.90
53599;DHT22;39485;45.702;11.364;2023-08-31T11:40:10;23.70;99.90
53599;DHT22;39485;45.702;11.364;2023-08-31T11:42:37;23.70;99.90
53599;DHT22;39485;45.702;11.364;2023-08-31T11:45:03;23.70;99.90
53599;DHT22;39485;45.702;11.364;2023-08-31T11:47:31;23.70;99.80
53599;DHT22;39485;45.702;11.364;2023-08-31T11:49:58;23.70;99.80
53599;DHT22;39485;45.702;11.364;2023-08-31T11:52:25;23.80;99.60
53599;DHT22;39485;45.702;11.364;2023-08-31T11:54:53;23.80;99.40
53599;DHT22;39485;45.702;11.364;2023-08-31T11:57:19;23.70;99.00
53599;DHT22;39485;45.702;11.364;2023-08-31T11:59:50;23.70;99.10
53599;DHT22;39485;45.702;11.364;2023-08-31T12:02:19;23.80;99.30
53599;DHT22;39485;45.702;11.364;2023-08-31T12:04:45;23.80;99.40
53599;DHT22;39485;45.702;11.364;2023-08-31T12:07:21;23.80;99.40
53599;DHT22;39485;45.702;11.364;2023-08-31T12:09:47;23.80;99.00
53599;DHT22;39485;45.702;11.364;2023-08-31T12:12:14;23.80;99.10
53599;DHT22;39485;45.702;11.364;2023-08-31T12:14:43;23.90;99.40
53599;DHT22;39485;45.702;11.364;2023-08-31T12:17:09;24.00;99.50
53599;DHT22;39485;45.702;11.364;2023-08-31T12:19:38;24.00;99.30
53599;DHT22;39485;45.702;11.364;2023-08-31T12:22:05;24.10;99.30
53599;DHT22;39485;45.702;11.364;2023-08-31T12:24:39;24.20;99.40
53599;DHT22;39485;45.702;11.364;2023-08-31T12:27:08;24.20;99.30
53599;DHT22;39485;45.702;11.364;2023-08-31T12:29:34;24.30;99.10
53599;DHT22;39485;45.702;11.364;2023-08-31T12:32:00;24.30;99.00
53599;DHT22;39485;45.702;11.364;2023-08-31T12:34:26;24.40;99.00
53599;DHT22;39485;45.702;11.364;2023-08-31T12:36:51;24.40;98.90
53599;DHT22;39485;45.702;11.364;2023-08-31T12:39:18;24.40;98.80
53599;DHT22;39485;45.702;11.364;2023-08-31T12:41:44;24.50;99.00
53599;DHT22;39485;45.702;11.364;2023-08-31T12:44:09;24.60;99.00
53599;DHT22;39485;45.702;11.364;2023-08-31T12:46:35;24.60;98.80
53599;DHT22;39485;45.702;11.364;2023-08-31T12:49:01;24.60;98.70
53599;DHT22;39485;45.702;11.364;2023-08-31T12:51:31;24.60;98.80
53599;DHT22;39485;45.702;11.364;2023-08-31T12:53:57;24.60;98.10
53599;DHT22;39485;45.702;11.364;2023-08-31T12:56:23;24.60;98.10
53599;DHT22;39485;45.702;11.364;2023-08-31T12:58:53;24.60;98.40
53599;DHT22;39485;45.702;11.364;2023-08-31T13:01:20;24.60;98.30
53599;DHT22;39485;45.702;11.364;2023-08-31T13:03:46;24.60;98.30
53599;DHT22;39485;45.702;11.364;2023-08-31T13:06:15;24.60;98.40
53599;DHT22;39485;45.702;11.364;2023-08-31T13:08:44;24.60;98.40
53599;DHT22;39485;45.702;11.364;2023-08-31T13:11:11;24.60;98.20
53599;DHT22;39485;45.702;11.364;2023-08-31T13:13:38;24.50;98.50
53599;DHT22;39485;45.702;11.364;2023-08-31T13:16:04;24.50;98.70
53599;DHT22;39485;45.702;11.364;2023-08-31T13:18:30;24.50;98.70
53599;DHT22;39485;45.702;11.364;2023-08-31T13:20:56;24.50;98.60
53599;DHT22;39485;45.702;11.364;2023-08-31T13:23:22;24.60;98.70
53599;DHT22;39485;45.702;11.364;2023-08-31T13:25:49;24.60;98.60
53599;DHT22;39485;45.702;11.364;2023-08-31T13:28:15;24.50;98.50
53599;DHT22;39485;45.702;11.364;2023-08-31T13:30:41;24.50;98.60
53599;DHT22;39485;45.702;11.364;2023-08-31T13:33:07;24.50;98.40
53599;DHT22;39485;45.702;11.364;2023-08-31T13:35:34;24.40;98.40
53599;DHT22;39485;45.702;11.364;2023-08-31T13:37:59;24.40;98.30
53599;DHT22;39485;45.702;11.364;2023-08-31T13:40:25;24.30;98.50
53599;DHT22;39485;45.702;11.364;2023-08-31T13:42:55;24.20;98.50
53599;DHT22;39485;45.702;11.364;2023-08-31T13:45:29;24.20;98.50
53599;DHT22;39485;45.702;11.364;2023-08-31T13:47:56;24.10;98.70
53599;DHT22;39485;45.702;11.364;2023-08-31T13:50:23;24.10;98.70
53599;DHT22;39485;45.702;11.364;2023-08-31T13:52:48;24.10;98.70
53599;DHT22;39485;45.702;11.364;2023-08-31T13:55:14;24.00;98.90
53599;DHT22;39485;45.702;11.364;2023-08-31T13:57:42;24.00;99.00
53599;DHT22;39485;45.702;11.364;2023-08-31T14:00:08;24.00;99.10
53599;DHT22;39485;45.702;11.364;2023-08-31T14:02:35;23.90;99.20
53599;DHT22;39485;45.702;11.364;2023-08-31T14:05:02;23.90;99.30
53599;DHT22;39485;45.702;11.364;2023-08-31T14:07:28;23.90;99.70
53599;DHT22;39485;45.702;11.364;2023-08-31T14:09:54;23.90;99.60
53599;DHT22;39485;45.702;11.364;2023-08-31T14:12:19;23.90;99.80
53599;DHT22;39485;45.702;11.364;2023-08-31T14:14:47;23.90;99.70
53599;DHT22;39485;45.702;11.364;2023-08-31T14:17:13;23.90;99.90
53599;DHT22;39485;45.702;11.364;2023-08-31T14:19:38;23.90;99.90
53599;DHT22;39485;45.702;11.364;2023-08-31T14:22:05;23.80;99.90
53599;DHT22;39485;45.702;11.364;2023-08-31T14:24:31;23.80;99.90
53599;DHT22;39485;45.702;11.364;2023-08-31T14:26:57;23.80;99.90
53599;DHT22;39485;45.702;11.364;2023-08-31T14:29:23;23.80;99.90
53599;DHT22;39485;45.702;11.364;2023-08-31T14:31:48;23.70;99.90
53599;DHT22;39485;45.702;11.364;2023-08-31T14:34:14;23.70;99.90
53599;DHT22;39485;45.702;11.364;2023-08-31T14:36:40;23.70;99.90
53599;DHT22;39485;45.702;11.364;2023-08-31T14:39:06;23.60;99.90
53599;DHT22;39485;45.702;11.364;2023-08-31T14:41:31;23.60;99.90
53599;DHT22;39485;45.702;11.364;2023-08-31T14:43:57;23.60;99.90
53599;DHT22;39485;45.702;11.364;2023-08-31T14:46:22;23.60;99.90
53599;DHT22;39485;45.702;11.364;2023-08-31T14:48:50;23.60;99.90
53599;DHT22;39485;45.702;11.364;2023-08-31T14:51:16;23.50;99.90
53599;DHT22;39485;45.702;11.364;2023-08-31T14:53:42;23.50;99.90
53599;DHT22;39485;45.702;11.364;2023-08-31T14:56:08;23.40;99.90
53599;DHT22;39485;45.702;11.364;2023-08-31T14:58:33;23.40;99.90
53599;DHT22;39485;45.702;11.364;2023-08-31T15:00:59;23.40;99.90
53599;DHT22;39485;45.702;11.364;2023-08-31T15:03:25;23.40;99.90
53599;DHT22;39485;45.702;11.364;2023-08-31T15:05:50;23.40;99.90
53599;DHT22;39485;45.702;11.364;2023-08-31T15:08:16;23.40;99.90
53599;DHT22;39485;45.702;11.364;2023-08-31T15:10:42;23.40;99.90
53599;DHT22;39485;45.702;11.364;2023-08-31T15:13:08;23.50;99.90
53599;DHT22;39485;45.702;11.364;2023-08-31T15:15:33;23.60;99.90
53599;DHT22;39485;45.702;11.364;2023-08-31T15:17:59;23.60;99.90
53599;DHT22;39485;45.702;11.364;2023-08-31T15:20:26;23.60;99.90
53599;DHT22;39485;45.702;11.364;2023-08-31T15:22:53;23.60;99.90
53599;DHT22;39485;45.702;11.364;2023-08-31T15:25:18;23.60;99.90
53599;DHT22;39485;45.702;11.364;2023-08-31T15:27:44;23.60;99.90
53599;DHT22;39485;45.702;11.364;2023-08-31T15:30:10;23.60;99.90
53599;DHT22;39485;45.702;11.364;2023-08-31T15:32:36;23.50;99.90
53599;DHT22;39485;45.702;11.364;2023-08-31T15:35:03;23.50;99.90
53599;DHT22;39485;45.702;11.364;2023-08-31T15:37:29;23.50;99.90
53599;DHT22;39485;45.702;11.364;2023-08-31T15:39:55;23.50;99.90
53599;DHT22;39485;45.702;11.364;2023-08-31T15:42:22;23.50;99.90
53599;DHT22;39485;45.702;11.364;2023-08-31T15:44:50;23.50;99.90
53599;DHT22;39485;45.702;11.364;2023-08-31T15:47:18;23.50;99.90
53599;DHT22;39485;45.702;11.364;2023-08-31T15:49:43;23.50;99.90
53599;DHT22;39485;45.702;11.364;2023-08-31T15:52:09;23.50;99.90
53599;DHT22;39485;45.702;11.364;2023-08-31T15:54:35;23.50;99.90
53599;DHT22;39485;45.702;11.364;2023-08-31T15:57:00;23.50;99.90
53599;DHT22;39485;45.702;11.364;2023-08-31T15:59:26;23.50;99.90
53599;DHT22;39485;45.702;11.364;2023-08-31T16:01:52;23.50;99.90
53599;DHT22;39485;45.702;11.364;2023-08-31T16:04:17;23.40;99.90
53599;DHT22;39485;45.702;11.364;2023-08-31T16:06:43;23.40;99.90